sensor_id;sensor_type;location;lat;lon;timestamp;pressure;altitude;pressure_sealevel;temperature;humidity
10909;BME280;5507;48.548;8.720;2022-12-26T00:00:35;72145.13;;;7.45;100.00
10909;BME280;5507;48.548;8.720;2022-12-26T00:03:02;72160.28;;;7.59;100.00
10909;BME280;5507;48.548;8.720;2022-12-26T00:05:34;72142.84;;;7.50;100.00
10909;BME280;5507;48.548;8.720;2022-12-26T00:08:05;72126.25;;;7.27;100.00
10909;BME280;5507;48.548;8.720;2022-12-26T00:14:19;72093.44;;;7.03;100.00
10909;BME280;5507;48.548;8.720;2022-12-26T00:31:08;72082.94;;;6.94;100.00
10909;BME280;5507;48.548;8.720;2022-12-26T00:34:40;72043.09;;;6.57;100.00
10909;BME280;5507;48.548;8.720;2022-12-26T00:41:38;72047.97;;;6.64;100.00
10909;BME280;5507;48.548;8.720;2022-12-26T00:44:44;72046.66;;;6.67;100.00
10909;BME280;5507;48.548;8.720;2022-12-26T00:48:00;72005.44;;;6.27;100.00
10909;BME280;5507;48.548;8.720;2022-12-26T00:50:50;72040.38;;;6.57;100.00
10909;BME280;5507;48.548;8.720;2022-12-26T01:04:26;72050.09;;;6.63;100.00
10909;BME280;5507;48.548;8.720;2022-12-26T01:11:24;72039.00;;;6.53;100.00
10909;BME280;5507;48.548;8.720;2022-12-26T01:14:16;72068.94;;;6.82;100.00
10909;BME280;5507;48.548;8.720;2022-12-26T01:16:43;72079.44;;;6.91;100.00
10909;BME280;5507;48.548;8.720;2022-12-26T01:19:11;72081.41;;;6.95;100.00
10909;BME280;5507;48.548;8.720;2022-12-26T01:21:36;72098.69;;;7.08;100.00
10909;BME280;5507;48.548;8.720;2022-12-26T01:24:03;72111.50;;;7.19;100.00
10909;BME280;5507;48.548;8.720;2022-12-26T01:26:28;72117.34;;;7.24;100.00
10909;BME280;5507;48.548;8.720;2022-12-26T01:28:54;72109.97;;;7.20;100.00
10909;BME280;5507;48.548;8.720;2022-12-26T01:31:20;72142.00;;;7.40;100.00
10909;BME280;5507;48.548;8.720;2022-12-26T01:33:46;72136.56;;;7.40;100.00
10909;BME280;5507;48.548;8.720;2022-12-26T01:36:12;72140.88;;;7.46;100.00
10909;BME280;5507;48.548;8.720;2022-12-26T01:38:37;72137.38;;;7.43;100.00
10909;BME280;5507;48.548;8.720;2022-12-26T01:41:03;72147.31;;;7.52;100.00
10909;BME280;5507;48.548;8.720;2022-12-26T01:44:01;72145.72;;;7.46;100.00
10909;BME280;5507;48.548;8.720;2022-12-26T01:46:37;72145.91;;;7.48;100.00
10909;BME280;5507;48.548;8.720;2022-12-26T01:49:36;72158.75;;;7.60;100.00
10909;BME280;5507;48.548;8.720;2022-12-26T01:52:11;72159.91;;;7.61;100.00
10909;BME280;5507;48.548;8.720;2022-12-26T01:54:41;72158.75;;;7.60;100.00
10909;BME280;5507;48.548;8.720;2022-12-26T01:57:22;72147.09;;;7.49;100.00
10909;BME280;5507;48.548;8.720;2022-12-26T01:59:49;72138.91;;;7.42;100.00
10909;BME280;5507;48.548;8.720;2022-12-26T02:02:17;72154.69;;;7.56;100.00
10909;BME280;5507;48.548;8.720;2022-12-26T02:04:46;72167.50;;;7.67;100.00
10909;BME280;5507;48.548;8.720;2022-12-26T02:07:33;72161.66;;;7.62;100.00
10909;BME280;5507;48.548;8.720;2022-12-26T02:09:59;72158.16;;;7.59;100.00
10909;BME280;5507;48.548;8.720;2022-12-26T02:12:29;72163.44;;;7.64;100.00
10909;BME280;5507;48.548;8.720;2022-12-26T02:14:57;72159.91;;;7.61;100.00
10909;BME280;5507;48.548;8.720;2022-12-26T02:17:24;72152.13;;;7.52;100.00
10909;BME280;5507;48.548;8.720;2022-12-26T02:19:53;72143.59;;;7.46;100.00
10909;BME280;5507;48.548;8.720;2022-12-26T02:31:17;72117.91;;;7.24;100.00
10909;BME280;5507;48.548;8.720;2022-12-26T02:34:12;72112.09;;;7.19;100.00
10909;BME280;5507;48.548;8.720;2022-12-26T02:36:57;72114.66;;;7.24;100.00
10909;BME280;5507;48.548;8.720;2022-12-26T02:42:06;72106.09;;;7.19;100.00
10909;BME280;5507;48.548;8.720;2022-12-26T02:44:40;72117.91;;;7.24;100.00
10909;BME280;5507;48.548;8.720;2022-12-26T02:47:53;72117.91;;;7.24;100.00
10909;BME280;5507;48.548;8.720;2022-12-26T02:50:32;72119.66;;;7.26;100.00
10909;BME280;5507;48.548;8.720;2022-12-26T02:53:47;72130.75;;;7.35;100.00
10909;BME280;5507;48.548;8.720;2022-12-26T02:56:42;72135.03;;;7.41;100.00
10909;BME280;5507;48.548;8.720;2022-12-26T02:59:39;72132.50;;;7.37;100.00
10909;BME280;5507;48.548;8.720;2022-12-26T03:02:35;72130.53;;;7.33;100.00
10909;BME280;5507;48.548;8.720;2022-12-26T03:05:27;72124.53;;;7.32;100.00
10909;BME280;5507;48.548;8.720;2022-12-26T03:08:20;72138.13;;;7.39;100.00
10909;BME280;5507;48.548;8.720;2022-12-26T03:11:06;72136.81;;;7.43;100.00
10909;BME280;5507;48.548;8.720;2022-12-26T03:13:51;72131.16;;;7.40;100.00
10909;BME280;5507;48.548;8.720;2022-12-26T03:16:19;72133.88;;;7.40;100.00
10909;BME280;5507;48.548;8.720;2022-12-26T03:19:07;72137.56;;;7.39;100.00
10909;BME280;5507;48.548;8.720;2022-12-26T03:21:39;72129.78;;;7.37;100.00
10909;BME280;5507;48.548;8.720;2022-12-26T03:24:09;72124.53;;;7.32;100.00
10909;BME280;5507;48.548;8.720;2022-12-26T03:26:39;72122.00;;;7.28;100.00
10909;BME280;5507;48.548;8.720;2022-12-26T03:29:14;72125.88;;;7.29;100.00
10909;BME280;5507;48.548;8.720;2022-12-26T03:32:00;72115.59;;;7.22;100.00
10909;BME280;5507;48.548;8.720;2022-12-26T03:34:26;72116.97;;;7.26;100.00
10909;BME280;5507;48.548;8.720;2022-12-26T03:37:35;72110.34;;;7.18;100.00
10909;BME280;5507;48.548;8.720;2022-12-26T03:40:37;72117.72;;;7.22;100.00
10909;BME280;5507;48.548;8.720;2022-12-26T03:46:16;72102.97;;;7.14;100.00
10909;BME280;5507;48.548;8.720;2022-12-26T03:49:11;72091.69;;;7.01;100.00
10909;BME280;5507;48.548;8.720;2022-12-26T03:52:04;72097.31;;;7.04;100.00
10909;BME280;5507;48.548;8.720;2022-12-26T03:55:10;72082.00;;;6.95;100.00
10909;BME280;5507;48.548;8.720;2022-12-26T03:58:04;72084.69;;;6.95;100.00
10909;BME280;5507;48.548;8.720;2022-12-26T04:00:50;72079.06;;;6.93;100.00
10909;BME280;5507;48.548;8.720;2022-12-26T04:03:36;72083.31;;;6.92;100.00
10909;BME280;5507;48.548;8.720;2022-12-26T04:06:25;72077.50;;;6.87;100.00
10909;BME280;5507;48.548;8.720;2022-12-26T04:09:18;72075.38;;;6.87;100.00
10909;BME280;5507;48.548;8.720;2022-12-26T04:12:05;72067.19;;;6.80;100.00
10909;BME280;5507;48.548;8.720;2022-12-26T04:14:57;72065.50;;;6.86;100.00
10909;BME280;5507;48.548;8.720;2022-12-26T04:17:55;72074.63;;;6.91;100.00
10909;BME280;5507;48.548;8.720;2022-12-26T04:21:07;72086.06;;;6.99;100.00
10909;BME280;5507;48.548;8.720;2022-12-26T04:23:57;72095.56;;;7.02;100.00
10909;BME280;5507;48.548;8.720;2022-12-26T04:26:44;72101.81;;;7.13;100.00
10909;BME280;5507;48.548;8.720;2022-12-26T04:29:29;72113.25;;;7.20;100.00
10909;BME280;5507;48.548;8.720;2022-12-26T04:32:38;72130.75;;;7.35;100.00
10909;BME280;5507;48.548;8.720;2022-12-26T04:35:33;72140.47;;;7.41;100.00
10909;BME280;5507;48.548;8.720;2022-12-26T04:38:28;72140.69;;;7.44;100.00
10909;BME280;5507;48.548;8.720;2022-12-26T04:41:13;72151.16;;;7.53;100.00
10909;BME280;5507;48.548;8.720;2022-12-26T04:44:01;72151.97;;;7.56;100.00
10909;BME280;5507;48.548;8.720;2022-12-26T04:46:33;72154.69;;;7.56;100.00
10909;BME280;5507;48.548;8.720;2022-12-26T04:49:02;72156.41;;;7.58;100.00
10909;BME280;5507;48.548;8.720;2022-12-26T04:51:47;72160.28;;;7.59;100.00
10909;BME280;5507;48.548;8.720;2022-12-26T04:54:13;72149.44;;;7.52;100.00
10909;BME280;5507;48.548;8.720;2022-12-26T04:56:38;72148.25;;;7.50;100.00
10909;BME280;5507;48.548;8.720;2022-12-26T04:59:03;72138.91;;;7.42;100.00
10909;BME280;5507;48.548;8.720;2022-12-26T05:01:29;72147.47;;;7.47;100.00
10909;BME280;5507;48.548;8.720;2022-12-26T05:04:14;72153.13;;;7.57;100.00
10909;BME280;5507;48.548;8.720;2022-12-26T05:06:59;72152.34;;;7.54;100.00
10909;BME280;5507;48.548;8.720;2022-12-26T05:09:45;72170.81;;;7.68;100.00
10909;BME280;5507;48.548;8.720;2022-12-26T05:12:10;72164.56;;;7.65;100.00
10909;BME280;5507;48.548;8.720;2022-12-26T05:14:36;72156.81;;;7.56;100.00
10909;BME280;5507;48.548;8.720;2022-12-26T05:17:02;72148.06;;;7.48;100.00
10909;BME280;5507;48.548;8.720;2022-12-26T05:19:47;72137.97;;;7.44;100.00
10909;BME280;5507;48.548;8.720;2022-12-26T05:22:32;72143.00;;;7.46;100.00
10909;BME280;5507;48.548;8.720;2022-12-26T05:25:19;72133.66;;;7.38;100.00
10909;BME280;5507;48.548;8.720;2022-12-26T05:28:04;72135.78;;;7.37;100.00
10909;BME280;5507;48.548;8.720;2022-12-26T05:30:47;72130.38;;;7.37;100.00
10909;BME280;5507;48.548;8.720;2022-12-26T05:33:13;72138.34;;;7.42;100.00
10909;BME280;5507;48.548;8.720;2022-12-26T05:35:57;72138.91;;;7.42;100.00
10909;BME280;5507;48.548;8.720;2022-12-26T05:38:23;72144.16;;;7.47;100.00
10909;BME280;5507;48.548;8.720;2022-12-26T05:40:48;72142.06;;;7.47;100.00
10909;BME280;5507;48.548;8.720;2022-12-26T05:43:13;72144.75;;;7.47;100.00
10909;BME280;5507;48.548;8.720;2022-12-26T05:45:39;72149.19;;;7.49;100.00
10909;BME280;5507;48.548;8.720;2022-12-26T05:48:04;72150.78;;;7.55;100.00
10909;BME280;5507;48.548;8.720;2022-12-26T05:50:29;72151.16;;;7.53;100.00
10909;BME280;5507;48.548;8.720;2022-12-26T05:52:56;72156.03;;;7.60;100.00
10909;BME280;5507;48.548;8.720;2022-12-26T05:55:21;72167.28;;;7.65;100.00
10909;BME280;5507;48.548;8.720;2022-12-26T05:57:48;72155.25;;;7.57;100.00
10909;BME280;5507;48.548;8.720;2022-12-26T06:00:14;72150.38;;;7.50;100.00
10909;BME280;5507;48.548;8.720;2022-12-26T06:02:39;72158.53;;;7.57;100.00
10909;BME280;5507;48.548;8.720;2022-12-26T06:05:05;72137.97;;;7.44;100.00
10909;BME280;5507;48.548;8.720;2022-12-26T06:07:30;72139.50;;;7.43;100.00
10909;BME280;5507;48.548;8.720;2022-12-26T06:09:55;72124.53;;;7.32;100.00
10909;BME280;5507;48.548;8.720;2022-12-26T06:12:21;72110.19;;;7.22;100.00
10909;BME280;5507;48.548;8.720;2022-12-26T06:14:46;72102.03;;;7.15;100.00
10909;BME280;5507;48.548;8.720;2022-12-26T06:17:11;72104.31;;;7.10;100.00
10909;BME280;5507;48.548;8.720;2022-12-26T06:19:38;72104.31;;;7.10;100.00
10909;BME280;5507;48.548;8.720;2022-12-26T06:22:03;72109.56;;;7.15;100.00
10909;BME280;5507;48.548;8.720;2022-12-26T06:24:29;72115.59;;;7.22;100.00
10909;BME280;5507;48.548;8.720;2022-12-26T06:26:54;72119.25;;;7.21;100.00
10909;BME280;5507;48.548;8.720;2022-12-26T06:29:19;72118.72;;;7.27;100.00
10909;BME280;5507;48.548;8.720;2022-12-26T06:31:44;72133.88;;;7.40;100.00
10909;BME280;5507;48.548;8.720;2022-12-26T06:34:10;72140.47;;;7.41;100.00
10909;BME280;5507;48.548;8.720;2022-12-26T06:36:36;72127.84;;;7.33;100.00
10909;BME280;5507;48.548;8.720;2022-12-26T06:39:01;72131.72;;;7.34;100.00
10909;BME280;5507;48.548;8.720;2022-12-26T06:41:26;72124.91;;;7.30;100.00
10909;BME280;5507;48.548;8.720;2022-12-26T06:43:52;72125.50;;;7.31;100.00
10909;BME280;5507;48.548;8.720;2022-12-26T06:46:20;72114.41;;;7.21;100.00
10909;BME280;5507;48.548;8.720;2022-12-26T06:48:46;72112.47;;;7.17;100.00
10909;BME280;5507;48.548;8.720;2022-12-26T06:51:13;72106.25;;;7.14;100.00
10909;BME280;5507;48.548;8.720;2022-12-26T06:53:39;72110.94;;;7.18;100.00
10909;BME280;5507;48.548;8.720;2022-12-26T06:56:13;72117.34;;;7.24;100.00
10909;BME280;5507;48.548;8.720;2022-12-26T06:58:40;72120.06;;;7.24;100.00
10909;BME280;5507;48.548;8.720;2022-12-26T07:01:11;72116.75;;;7.23;100.00
10909;BME280;5507;48.548;8.720;2022-12-26T07:03:37;72113.84;;;7.21;100.00
10909;BME280;5507;48.548;8.720;2022-12-26T07:06:04;72124.91;;;7.30;100.00
10909;BME280;5507;48.548;8.720;2022-12-26T07:08:30;72121.00;;;7.22;100.00
10909;BME280;5507;48.548;8.720;2022-12-26T07:10:55;72118.50;;;7.25;100.00
10909;BME280;5507;48.548;8.720;2022-12-26T07:13:21;72102.38;;;7.13;100.00
10909;BME280;5507;48.548;8.720;2022-12-26T07:15:46;72111.50;;;7.19;100.00
10909;BME280;5507;48.548;8.720;2022-12-26T07:18:11;72119.66;;;7.26;100.00
10909;BME280;5507;48.548;8.720;2022-12-26T07:20:37;72120.25;;;7.26;100.00
10909;BME280;5507;48.548;8.720;2022-12-26T07:23:02;72118.72;;;7.27;100.00
10909;BME280;5507;48.548;8.720;2022-12-26T07:25:27;72119.47;;;7.23;100.00
10909;BME280;5507;48.548;8.720;2022-12-26T07:27:53;72123.16;;;7.29;100.00
10909;BME280;5507;48.548;8.720;2022-12-26T07:30:18;72125.72;;;7.33;100.00
10909;BME280;5507;48.548;8.720;2022-12-26T07:32:43;72127.63;;;7.30;100.00
10909;BME280;5507;48.548;8.720;2022-12-26T07:35:09;72128.81;;;7.31;100.00
10909;BME280;5507;48.548;8.720;2022-12-26T07:37:34;72132.50;;;7.37;100.00
10909;BME280;5507;48.548;8.720;2022-12-26T07:39:59;72126.88;;;7.34;100.00
10909;BME280;5507;48.548;8.720;2022-12-26T07:42:24;72137.16;;;7.41;100.00
10909;BME280;5507;48.548;8.720;2022-12-26T07:44:50;72137.16;;;7.41;100.00
10909;BME280;5507;48.548;8.720;2022-12-26T07:47:15;72139.50;;;7.43;100.00
10909;BME280;5507;48.548;8.720;2022-12-26T07:49:40;72142.06;;;7.47;100.00
10909;BME280;5507;48.548;8.720;2022-12-26T07:52:06;72137.59;;;7.46;100.00
10909;BME280;5507;48.548;8.720;2022-12-26T07:54:31;72152.34;;;7.54;100.00
10909;BME280;5507;48.548;8.720;2022-12-26T07:56:57;72153.28;;;7.53;100.00
10909;BME280;5507;48.548;8.720;2022-12-26T07:59:22;72163.00;;;7.59;100.00
10909;BME280;5507;48.548;8.720;2022-12-26T08:01:47;72159.34;;;7.60;100.00
10909;BME280;5507;48.548;8.720;2022-12-26T08:04:13;72154.09;;;7.56;100.00
10909;BME280;5507;48.548;8.720;2022-12-26T08:06:38;72150.00;;;7.52;100.00
10909;BME280;5507;48.548;8.720;2022-12-26T08:09:04;72151.75;;;7.54;100.00
10909;BME280;5507;48.548;8.720;2022-12-26T08:11:33;72154.69;;;7.56;100.00
10909;BME280;5507;48.548;8.720;2022-12-26T08:13:59;72156.81;;;7.56;100.00
10909;BME280;5507;48.548;8.720;2022-12-26T08:16:24;72154.88;;;7.59;100.00
10909;BME280;5507;48.548;8.720;2022-12-26T08:18:49;72156.41;;;7.58;100.00
10909;BME280;5507;48.548;8.720;2022-12-26T08:21:15;72151.75;;;7.54;100.00
10909;BME280;5507;48.548;8.720;2022-12-26T08:23:40;72158.75;;;7.60;100.00
10909;BME280;5507;48.548;8.720;2022-12-26T08:26:07;72164.78;;;7.67;100.00
10909;BME280;5507;48.548;8.720;2022-12-26T08:28:33;72171.38;;;7.68;100.00
10909;BME280;5507;48.548;8.720;2022-12-26T08:30:59;72176.63;;;7.73;100.00
10909;BME280;5507;48.548;8.720;2022-12-26T08:33:24;72186.53;;;7.81;100.00
10909;BME280;5507;48.548;8.720;2022-12-26T08:35:49;72188.28;;;7.83;100.00
10909;BME280;5507;48.548;8.720;2022-12-26T08:38:14;72232.84;;;8.24;100.00
10909;BME280;5507;48.548;8.720;2022-12-26T08:40:40;72264.56;;;8.47;100.00
10909;BME280;5507;48.548;8.720;2022-12-26T08:43:05;72293.78;;;8.79;100.00
10909;BME280;5507;48.548;8.720;2022-12-26T08:45:31;72316.16;;;8.94;100.00
10909;BME280;5507;48.548;8.720;2022-12-26T08:47:56;72312.63;;;8.90;100.00
10909;BME280;5507;48.548;8.720;2022-12-26T08:50:23;72319.84;;;8.99;100.00
10909;BME280;5507;48.548;8.720;2022-12-26T08:52:49;72318.13;;;8.98;100.00
10909;BME280;5507;48.548;8.720;2022-12-26T08:55:14;72328.03;;;9.06;100.00
10909;BME280;5507;48.548;8.720;2022-12-26T08:57:40;72337.75;;;9.12;100.00
10909;BME280;5507;48.548;8.720;2022-12-26T09:00:06;72316.34;;;8.96;100.00
10909;BME280;5507;48.548;8.720;2022-12-26T09:02:31;72311.69;;;8.92;100.00
10909;BME280;5507;48.548;8.720;2022-12-26T09:04:57;72311.50;;;8.89;100.00
10909;BME280;5507;48.548;8.720;2022-12-26T09:07:22;72307.59;;;8.88;100.00
10909;BME280;5507;48.548;8.720;2022-12-26T09:09:48;72299.44;;;8.81;100.00
10909;BME280;5507;48.548;8.720;2022-12-26T09:12:14;72300.59;;;8.82;100.00
10909;BME280;5507;48.548;8.720;2022-12-26T09:14:39;72319.66;;;8.97;100.00
10909;BME280;5507;48.548;8.720;2022-12-26T09:17:05;72320.84;;;8.98;100.00
10909;BME280;5507;48.548;8.720;2022-12-26T09:19:30;72337.75;;;9.12;100.00
10909;BME280;5507;48.548;8.720;2022-12-26T09:21:57;72335.41;;;9.10;100.00
10909;BME280;5507;48.548;8.720;2022-12-26T09:24:41;72350.03;;;9.23;100.00
10909;BME280;5507;48.548;8.720;2022-12-26T09:27:06;72348.28;;;9.21;100.00
10909;BME280;5507;48.548;8.720;2022-12-26T09:29:32;72349.66;;;9.25;100.00
10909;BME280;5507;48.548;8.720;2022-12-26T09:31:58;72349.06;;;9.24;100.00
10909;BME280;5507;48.548;8.720;2022-12-26T09:34:24;72341.47;;;9.18;100.00
10909;BME280;5507;48.548;8.720;2022-12-26T09:36:49;72335.63;;;9.13;100.00
10909;BME280;5507;48.548;8.720;2022-12-26T09:39:15;72327.06;;;9.08;100.00
10909;BME280;5507;48.548;8.720;2022-12-26T09:44:56;72337.19;;;9.12;100.00
10909;BME280;5507;48.548;8.720;2022-12-26T09:49:56;72339.53;;;9.14;100.00
10909;BME280;5507;48.548;8.720;2022-12-26T09:52:34;72338.34;;;9.13;100.00
10909;BME280;5507;48.548;8.720;2022-12-26T09:55:17;72333.28;;;9.11;100.00
10909;BME280;5507;48.548;8.720;2022-12-26T09:57:48;72329.19;;;9.07;100.00
10909;BME280;5507;48.548;8.720;2022-12-26T10:00:18;72327.47;;;9.06;100.00
10909;BME280;5507;48.548;8.720;2022-12-26T10:02:50;72337.75;;;9.12;100.00
10909;BME280;5507;48.548;8.720;2022-12-26T10:05:17;72331.53;;;9.09;100.00
10909;BME280;5507;48.548;8.720;2022-12-26T10:07:58;72334.66;;;9.14;100.00
10909;BME280;5507;48.548;8.720;2022-12-26T10:13:22;72338.75;;;9.18;100.00
10909;BME280;5507;48.548;8.720;2022-12-26T10:16:05;72348.28;;;9.21;100.00
10909;BME280;5507;48.548;8.720;2022-12-26T10:22:15;72338.94;;;9.13;100.00
10909;BME280;5507;48.548;8.720;2022-12-26T10:24:46;72342.63;;;9.19;100.00
10909;BME280;5507;48.548;8.720;2022-12-26T10:27:15;72350.25;;;9.25;100.00
10909;BME280;5507;48.548;8.720;2022-12-26T10:29:47;72356.44;;;9.28;100.00
10909;BME280;5507;48.548;8.720;2022-12-26T10:32:19;72358.78;;;9.30;100.00
10909;BME280;5507;48.548;8.720;2022-12-26T10:34:47;72353.94;;;9.31;100.00
10909;BME280;5507;48.548;8.720;2022-12-26T10:37:19;72364.03;;;9.35;100.00
10909;BME280;5507;48.548;8.720;2022-12-26T10:39:54;72357.81;;;9.32;100.00
10909;BME280;5507;48.548;8.720;2022-12-26T10:44:48;72365.22;;;9.36;100.00
10909;BME280;5507;48.548;8.720;2022-12-26T10:47:27;72366.97;;;9.38;100.00
10909;BME280;5507;48.548;8.720;2022-12-26T10:49:54;72369.09;;;9.37;100.00
10909;BME280;5507;48.548;8.720;2022-12-26T10:52:28;72365.41;;;9.38;100.00
10909;BME280;5507;48.548;8.720;2022-12-26T10:54:56;72388.22;;;9.58;100.00
10909;BME280;5507;48.548;8.720;2022-12-26T10:57:22;72393.84;;;9.61;100.00
10909;BME280;5507;48.548;8.720;2022-12-26T10:59:51;72399.09;;;9.65;100.00
10909;BME280;5507;48.548;8.720;2022-12-26T11:02:24;72398.34;;;9.69;100.00
10909;BME280;5507;48.548;8.720;2022-12-26T11:05:01;72407.28;;;9.72;100.00
10909;BME280;5507;48.548;8.720;2022-12-26T11:07:30;72412.53;;;9.77;100.00
10909;BME280;5507;48.548;8.720;2022-12-26T11:09:56;72423.66;;;9.87;100.00
10909;BME280;5507;48.548;8.720;2022-12-26T11:12:46;72432.63;;;9.97;100.00
10909;BME280;5507;48.548;8.720;2022-12-26T11:15:25;72441.38;;;9.97;100.00
10909;BME280;5507;48.548;8.720;2022-12-26T11:17:53;72432.03;;;9.96;100.00
10909;BME280;5507;48.548;8.720;2022-12-26T11:22:45;72443.13;;;10.06;100.00
10909;BME280;5507;48.548;8.720;2022-12-26T11:25:14;72440.00;;;10.01;100.00
10909;BME280;5507;48.548;8.720;2022-12-26T11:27:46;72436.13;;;10.00;100.00
10909;BME280;5507;48.548;8.720;2022-12-26T11:32:50;72428.53;;;9.93;100.00
10909;BME280;5507;48.548;8.720;2022-12-26T11:35:21;72423.47;;;9.91;100.00
10909;BME280;5507;48.548;8.720;2022-12-26T11:37:52;72423.84;;;9.89;100.00
10909;BME280;5507;48.548;8.720;2022-12-26T11:40:26;72418.38;;;9.82;100.00
10909;BME280;5507;48.548;8.720;2022-12-26T11:42:59;72423.06;;;9.86;100.00
10909;BME280;5507;48.548;8.720;2022-12-26T11:45:29;72418.59;;;9.84;100.00
10909;BME280;5507;48.548;8.720;2022-12-26T11:47:58;72410.78;;;9.75;100.00
10909;BME280;5507;48.548;8.720;2022-12-26T11:50:29;72402.81;;;9.71;100.00
10909;BME280;5507;48.548;8.720;2022-12-26T11:57:59;72426.56;;;9.89;100.00
10909;BME280;5507;48.548;8.720;2022-12-26T12:00:27;72409.63;;;9.74;100.00
10909;BME280;5507;48.548;8.720;2022-12-26T12:02:52;72414.88;;;9.79;100.00
10909;BME280;5507;48.548;8.720;2022-12-26T12:13:32;72413.91;;;9.80;100.00
10909;BME280;5507;48.548;8.720;2022-12-26T12:16:09;72412.53;;;9.77;100.00
10909;BME280;5507;48.548;8.720;2022-12-26T12:24:03;72407.47;;;9.75;100.00
10909;BME280;5507;48.548;8.720;2022-12-26T12:27:01;72408.66;;;9.76;100.00
10909;BME280;5507;48.548;8.720;2022-12-26T12:29:37;72402.22;;;9.70;100.00
10909;BME280;5507;48.548;8.720;2022-12-26T12:32:27;72406.69;;;9.72;100.00
10909;BME280;5507;48.548;8.720;2022-12-26T12:35:05;72423.06;;;9.86;100.00
10909;BME280;5507;48.548;8.720;2022-12-26T12:45:32;72421.50;;;9.87;100.00
10909;BME280;5507;48.548;8.720;2022-12-26T13:01:43;72419.19;;;9.85;100.00
10909;BME280;5507;48.548;8.720;2022-12-26T13:04:19;72428.53;;;9.93;100.00
10909;BME280;5507;48.548;8.720;2022-12-26T13:06:55;72417.63;;;9.86;100.00
10909;BME280;5507;48.548;8.720;2022-12-26T13:09:29;72424.63;;;9.85;100.00
10909;BME280;5507;48.548;8.720;2022-12-26T13:12:05;72427.75;;;9.90;100.00
10909;BME280;5507;48.548;8.720;2022-12-26T13:14:37;72429.47;;;9.92;100.00
10909;BME280;5507;48.548;8.720;2022-12-26T13:19:39;72409.81;;;9.77;100.00
10909;BME280;5507;48.548;8.720;2022-12-26T13:22:16;72430.47;;;9.90;100.00
10909;BME280;5507;48.548;8.720;2022-12-26T13:24:45;72437.28;;;10.01;100.00
10909;BME280;5507;48.548;8.720;2022-12-26T13:27:43;72446.22;;;10.04;100.00
10909;BME280;5507;48.548;8.720;2022-12-26T13:30:14;72440.59;;;10.01;100.00
10909;BME280;5507;48.548;8.720;2022-12-26T13:32:40;72452.28;;;10.11;100.00
10909;BME280;5507;48.548;8.720;2022-12-26T13:38:10;72426.97;;;9.94;100.00
10909;BME280;5507;48.548;8.720;2022-12-26T13:40:35;72440.00;;;10.01;100.00
10909;BME280;5507;48.548;8.720;2022-12-26T13:45:51;72445.09;;;10.10;100.00
10909;BME280;5507;48.548;8.720;2022-12-26T13:50:48;72449.56;;;10.11;100.00
10909;BME280;5507;48.548;8.720;2022-12-26T13:55:51;72427.94;;;9.93;100.00
10909;BME280;5507;48.548;8.720;2022-12-26T13:58:28;72425.41;;;9.88;100.00
10909;BME280;5507;48.548;8.720;2022-12-26T14:01:07;72426.75;;;9.92;100.00
10909;BME280;5507;48.548;8.720;2022-12-26T14:15:06;72446.63;;;10.09;100.00
10909;BME280;5507;48.548;8.720;2022-12-26T14:23:42;72429.47;;;9.92;100.00
10909;BME280;5507;48.548;8.720;2022-12-26T14:29:25;72434.97;;;9.99;100.00
10909;BME280;5507;48.548;8.720;2022-12-26T14:34:54;72423.84;;;9.82;100.00
10909;BME280;5507;48.548;8.720;2022-12-26T14:40:33;72420.94;;;9.87;100.00
10909;BME280;5507;48.548;8.720;2022-12-26T14:50:51;72415.84;;;9.77;100.00
10909;BME280;5507;48.548;8.720;2022-12-26T14:53:27;72411.38;;;9.76;100.00
10909;BME280;5507;48.548;8.720;2022-12-26T15:09:22;72378.47;;;9.52;100.00
10909;BME280;5507;48.548;8.720;2022-12-26T15:12:16;72381.00;;;9.50;100.00
10909;BME280;5507;48.548;8.720;2022-12-26T15:17:38;72380.00;;;9.51;100.00
10909;BME280;5507;48.548;8.720;2022-12-26T15:20:38;72384.50;;;9.53;100.00
10909;BME280;5507;48.548;8.720;2022-12-26T15:29:02;72387.41;;;9.55;100.00
10909;BME280;5507;48.548;8.720;2022-12-26T15:31:46;72385.28;;;9.56;100.00
10909;BME280;5507;48.548;8.720;2022-12-26T15:42:29;72369.09;;;9.37;100.00
10909;BME280;5507;48.548;8.720;2022-12-26T15:50:28;72350.41;;;9.21;100.00
10909;BME280;5507;48.548;8.720;2022-12-26T15:56:01;72342.63;;;9.19;100.00
10909;BME280;5507;48.548;8.720;2022-12-26T16:01:39;72336.41;;;9.16;100.00
10909;BME280;5507;48.548;8.720;2022-12-26T16:04:26;72333.09;;;9.08;100.00
10909;BME280;5507;48.548;8.720;2022-12-26T16:09:51;72326.88;;;9.05;100.00
10909;BME280;5507;48.548;8.720;2022-12-26T16:14:44;72321.41;;;8.98;100.00
10909;BME280;5507;48.548;8.720;2022-12-26T16:19:39;72314.41;;;8.92;100.00
10909;BME280;5507;48.548;8.720;2022-12-26T16:22:07;72304.66;;;8.86;100.00
10909;BME280;5507;48.548;8.720;2022-12-26T16:24:55;72305.25;;;8.86;100.00
10909;BME280;5507;48.548;8.720;2022-12-26T16:27:22;72299.22;;;8.79;100.00
10909;BME280;5507;48.548;8.720;2022-12-26T16:29:51;72289.09;;;8.75;100.00
10909;BME280;5507;48.548;8.720;2022-12-26T16:32:19;72290.09;;;8.73;100.00
10909;BME280;5507;48.548;8.720;2022-12-26T16:34:46;72281.31;;;8.66;100.00
10909;BME280;5507;48.548;8.720;2022-12-26T16:37:17;72278.19;;;8.61;100.00
10909;BME280;5507;48.548;8.720;2022-12-26T16:39:44;72263.81;;;8.51;100.00
10909;BME280;5507;48.548;8.720;2022-12-26T16:42:30;72262.06;;;8.49;100.00
10909;BME280;5507;48.548;8.720;2022-12-26T16:44:56;72249.22;;;8.38;100.00
10909;BME280;5507;48.548;8.720;2022-12-26T16:47:22;72259.72;;;8.47;100.00
10909;BME280;5507;48.548;8.720;2022-12-26T16:49:47;72255.63;;;8.43;100.00
10909;BME280;5507;48.548;8.720;2022-12-26T16:52:36;72278.19;;;8.61;100.00
10909;BME280;5507;48.548;8.720;2022-12-26T16:55:31;72285.78;;;8.67;100.00
10909;BME280;5507;48.548;8.720;2022-12-26T16:58:00;72284.84;;;8.69;100.00
10909;BME280;5507;48.548;8.720;2022-12-26T17:00:26;72293.38;;;8.74;100.00
10909;BME280;5507;48.548;8.720;2022-12-26T17:02:55;72294.16;;;8.77;100.00
10909;BME280;5507;48.548;8.720;2022-12-26T17:05:25;72297.47;;;8.77;100.00
10909;BME280;5507;48.548;8.720;2022-12-26T17:07:52;72301.16;;;8.83;100.00
10909;BME280;5507;48.548;8.720;2022-12-26T17:10:25;72305.84;;;8.87;100.00
10909;BME280;5507;48.548;8.720;2022-12-26T17:12:51;72308.78;;;8.89;100.00